Time;durP1;ratioP1;P1;durP2;ratioP2;P2;SDS_P1;SDS_P2;PMS_P1;PMS_P2;Temp;Humidity;BMP_temperature;BMP_pressure;BME280_temperature;BME280_humidity;BME280_pressure;Samples;Min_cycle;Max_cycle;Signal;HPM_P1;HPM_P2
2024/04/22 00:00:06;;;;;;;5.00;4.55;;;5.40;96.60;;;;;;5457423;26;20015;-73
2024/04/22 00:02:34;;;;;;;4.75;4.35;;;5.40;96.60;;;;;;5466839;26;20464;-73
2024/04/22 00:05:01;;;;;;;4.43;3.88;;;5.50;96.60;;;;;;5510346;26;19997;-73
2024/04/22 00:07:28;;;;;;;5.95;5.38;;;5.60;96.50;;;;;;5503445;26;20010;-73
2024/04/22 00:09:55;;;;;;;3.53;2.80;;;5.70;96.50;;;;;;5474440;26;20437;-73
2024/04/22 00:12:22;;;;;;;3.40;3.10;;;5.70;96.40;;;;;;5454800;26;20003;-73
2024/04/22 00:14:49;;;;;;;5.25;4.85;;;5.80;96.40;;;;;;5452117;26;19999;-73
2024/04/22 00:17:16;;;;;;;4.47;4.15;;;5.80;96.30;;;;;;5452764;26;20405;-73
2024/04/22 00:19:43;;;;;;;4.68;4.35;;;5.90;96.20;;;;;;5452420;26;20044;-73
2024/04/22 00:22:11;;;;;;;4.68;3.30;;;5.90;96.20;;;;;;5452654;26;20362;-73
2024/04/22 00:24:38;;;;;;;4.65;4.20;;;5.90;96.20;;;;;;5453990;26;20452;-73
2024/04/22 00:27:05;;;;;;;4.60;4.30;;;6.00;96.20;;;;;;5454609;26;20003;-73
2024/04/22 00:29:32;;;;;;;5.18;4.85;;;6.00;96.20;;;;;;5454477;26;20003;-72
2024/04/22 00:31:59;;;;;;;3.50;3.20;;;6.00;96.20;;;;;;5482363;26;20075;-73
2024/04/22 00:34:27;;;;;;;4.47;4.15;;;6.00;96.20;;;;;;5452630;26;20011;-73
2024/04/22 00:36:54;;;;;;;3.55;3.08;;;6.00;96.20;;;;;;5482606;26;19999;-73
2024/04/22 00:39:21;;;;;;;4.75;4.45;;;6.00;96.30;;;;;;5454426;26;20458;-73
2024/04/22 00:41:48;;;;;;;4.97;4.47;;;6.00;96.30;;;;;;5452240;26;20005;-73
2024/04/22 00:44:15;;;;;;;3.88;3.58;;;6.00;96.30;;;;;;5454605;26;19999;-73
2024/04/22 00:46:43;;;;;;;3.55;3.25;;;6.00;96.40;;;;;;5482360;26;20045;-73
2024/04/22 00:49:11;;;;;;;3.65;3.45;;;6.00;96.30;;;;;;5454248;26;20517;-73
2024/04/22 00:51:39;;;;;;;4.10;3.72;;;6.00;96.40;;;;;;5452553;26;20043;-73
2024/04/22 00:54:10;;;;;;;3.58;2.90;;;6.00;96.40;;;;;;5452226;26;19999;-73
2024/04/22 00:56:38;;;;;;;3.45;3.15;;;6.00;96.50;;;;;;5454066;26;20451;-73
2024/04/22 00:59:06;;;;;;;3.17;2.42;;;6.00;96.60;;;;;;5481896;26;20401;-73
2024/04/22 01:01:34;;;;;;;3.22;3.03;;;6.00;96.50;;;;;;5452088;26;19999;-73
2024/04/22 01:04:03;;;;;;;4.32;4.03;;;5.90;96.70;;;;;;5481700;26;20026;-73
2024/04/22 01:06:30;;;;;;;4.78;3.72;;;5.90;96.60;;;;;;5453886;26;20010;-73
2024/04/22 01:08:57;;;;;;;3.58;3.28;;;5.90;96.60;;;;;;5421899;26;20027;-73
2024/04/22 01:11:24;;;;;;;2.05;1.92;;;5.90;96.70;;;;;;5482210;26;20071;-73
2024/04/22 01:13:54;;;;;;;3.03;2.70;;;6.00;97.20;;;;;;5451326;26;20018;-73
2024/04/22 01:16:21;;;;;;;4.13;3.80;;;5.90;97.90;;;;;;5453872;26;19995;-73
2024/04/22 01:18:48;;;;;;;2.15;2.05;;;5.90;97.60;;;;;;5451949;26;20006;-73
2024/04/22 01:21:15;;;;;;;3.42;3.00;;;5.90;97.60;;;;;;5454183;26;20068;-73
2024/04/22 01:23:45;;;;;;;4.63;4.30;;;5.80;98.40;;;;;;5482137;26;20075;-73
2024/04/22 01:26:12;;;;;;;4.38;4.07;;;5.90;97.90;;;;;;5454019;26;20306;-73
2024/04/22 01:28:39;;;;;;;4.20;3.83;;;5.90;97.70;;;;;;5452027;26;19999;-73
2024/04/22 01:31:06;;;;;;;5.20;4.53;;;5.90;97.80;;;;;;5451864;26;19995;-73
2024/04/22 01:33:33;;;;;;;4.13;3.92;;;5.90;97.60;;;;;;5451603;26;20030;-73
2024/04/22 01:36:01;;;;;;;4.30;3.92;;;6.00;97.70;;;;;;5421699;26;20512;-73
2024/04/22 01:38:28;;;;;;;4.32;4.03;;;6.10;97.60;;;;;;5453394;26;20010;-73
2024/04/22 01:40:55;;;;;;;4.63;4.18;;;5.90;97.50;;;;;;5453135;26;20011;-73
2024/04/22 01:43:22;;;;;;;4.63;2.17;;;5.90;97.50;;;;;;5421837;26;20431;-73
2024/04/22 01:45:49;;;;;;;4.47;4.10;;;5.90;97.50;;;;;;5452954;26;20392;-73
2024/04/22 01:48:16;;;;;;;4.95;4.55;;;5.80;97.50;;;;;;5453364;26;19999;-73
2024/04/22 01:50:45;;;;;;;3.95;3.42;;;5.80;97.60;;;;;;5481690;26;19998;-73
2024/04/22 01:53:12;;;;;;;3.17;2.95;;;5.80;97.60;;;;;;5452905;26;20017;-73
2024/04/22 01:55:39;;;;;;;5.00;4.70;;;5.80;97.70;;;;;;5451886;26;20010;-74
2024/04/22 01:58:06;;;;;;;3.92;3.70;;;5.70;97.70;;;;;;5453331;26;20097;-73
2024/04/22 02:00:33;;;;;;;3.50;3.00;;;5.70;97.80;;;;;;5481576;26;20360;-73
2024/04/22 02:03:00;;;;;;;3.63;2.85;;;5.70;97.90;;;;;;5450984;26;19999;-73
2024/04/22 02:05:27;;;;;;;3.72;3.35;;;5.70;97.90;;;;;;5453416;26;20007;-73
2024/04/22 02:07:54;;;;;;;4.78;4.30;;;5.70;97.90;;;;;;5451548;26;20403;-73
2024/04/22 02:10:22;;;;;;;4.70;4.30;;;5.70;97.90;;;;;;5481485;26;20006;-73
2024/04/22 02:12:51;;;;;;;4.32;3.97;;;5.60;98.00;;;;;;5452779;26;20002;-73
2024/04/22 02:15:18;;;;;;;5.55;3.90;;;5.70;98.10;;;;;;5451086;26;19999;-73
2024/04/22 02:17:45;;;;;;;3.28;3.00;;;5.60;98.10;;;;;;5451323;26;20038;-73
2024/04/22 02:20:12;;;;;;;5.32;4.80;;;5.60;98.40;;;;;;5452457;26;20070;-73
2024/04/22 02:22:39;;;;;;;2.72;2.53;;;5.60;98.30;;;;;;5452847;26;20508;-73
2024/04/22 02:25:06;;;;;;;4.20;3.90;;;5.70;98.40;;;;;;5451433;26;19999;-73
2024/04/22 02:27:34;;;;;;;4.30;4.00;;;5.70;98.70;;;;;;5480996;26;20393;-73
2024/04/22 02:30:01;;;;;;;4.07;3.67;;;5.70;98.60;;;;;;5450628;26;20348;-73
2024/04/22 02:32:28;;;;;;;4.20;3.80;;;5.70;98.50;;;;;;5452601;26;20339;-73
2024/04/22 02:34:55;;;;;;;5.13;4.63;;;5.70;98.50;;;;;;5450624;26;20005;-72
2024/04/22 02:37:22;;;;;;;3.60;3.30;;;5.70;98.60;;;;;;5481469;26;20005;-73
2024/04/22 02:39:49;;;;;;;4.00;3.67;;;5.70;98.60;;;;;;5451032;26;20006;-73
2024/04/22 02:42:16;;;;;;;4.03;3.65;;;5.70;98.70;;;;;;5450483;26;20006;-73
2024/04/22 02:44:43;;;;;;;4.03;3.72;;;5.70;98.70;;;;;;5450714;26;19994;-73
2024/04/22 02:47:10;;;;;;;3.03;2.72;;;5.70;98.80;;;;;;5450444;26;19994;-73
2024/04/22 02:49:37;;;;;;;4.47;4.18;;;5.70;98.80;;;;;;5450395;26;20003;-73
2024/04/22 02:52:05;;;;;;;5.00;4.55;;;5.70;98.80;;;;;;5451946;26;20437;-73
2024/04/22 02:54:33;;;;;;;5.03;4.45;;;5.70;98.80;;;;;;5452258;26;20002;-73
2024/04/22 02:57:00;;;;;;;4.97;4.60;;;5.60;98.90;;;;;;5479970;26;20011;-73
2024/04/22 02:59:29;;;;;;;3.60;2.60;;;5.60;98.90;;;;;;5452143;26;20402;-73
2024/04/22 03:01:56;;;;;;;4.22;3.00;;;5.50;98.90;;;;;;5453144;26;20003;-73
2024/04/22 03:04:23;;;;;;;5.80;4.25;;;5.40;99.00;;;;;;5451258;26;20002;-73
2024/04/22 03:06:50;;;;;;;5.50;5.10;;;5.30;99.10;;;;;;5449018;26;19998;-73
2024/04/22 03:09:17;;;;;;;5.38;4.88;;;5.10;99.20;;;;;;5451739;26;20003;-73
2024/04/22 03:11:45;;;;;;;5.22;4.32;;;5.00;99.30;;;;;;5450775;26;20071;-73
2024/04/22 03:14:12;;;;;;;5.03;4.45;;;4.90;99.40;;;;;;5480191;26;20005;-73
2024/04/22 03:16:39;;;;;;;3.92;3.67;;;4.70;99.50;;;;;;5450313;26;20010;-73
2024/04/22 03:19:06;;;;;;;5.00;3.13;;;4.60;99.70;;;;;;5450195;26;20031;-73
2024/04/22 03:21:33;;;;;;;5.22;4.82;;;4.50;99.90;;;;;;5480377;26;20005;-73
2024/04/22 03:24:01;;;;;;;4.70;4.40;;;4.30;99.90;;;;;;5451805;26;20010;-73
2024/04/22 03:26:28;;;;;;;5.10;4.70;;;4.20;99.90;;;;;;5452096;26;20035;-73
2024/04/22 03:28:55;;;;;;;5.32;4.93;;;4.10;99.90;;;;;;5449870;26;20444;-73
2024/04/22 03:31:23;;;;;;;5.90;4.78;;;4.00;99.90;;;;;;5449500;26;20079;-72
2024/04/22 03:33:51;;;;;;;5.57;5.07;;;3.90;99.90;;;;;;5449899;26;20014;-73
2024/04/22 03:36:18;;;;;;;5.60;5.10;;;3.80;99.90;;;;;;5453204;26;20011;-73
2024/04/22 03:38:45;;;;;;;5.82;5.32;;;3.80;99.90;;;;;;5453468;26;20321;-73
2024/04/22 03:41:12;;;;;;;6.25;5.55;;;3.80;99.90;;;;;;5483314;26;20324;-73
2024/04/22 03:43:39;;;;;;;4.85;4.30;;;3.70;99.90;;;;;;5455115;26;19999;-73
2024/04/22 03:51:37;;;;;;;5.32;5.00;;;3.60;99.90;;;;;;5453480;26;20003;-72
2024/04/22 03:54:04;;;;;;;6.97;4.78;;;3.60;99.90;;;;;;5455167;26;19995;-73
2024/04/22 03:56:31;;;;;;;3.72;3.38;;;3.60;99.90;;;;;;5423518;26;20381;-73
2024/04/22 03:58:59;;;;;;;5.90;5.50;;;3.60;99.90;;;;;;5454851;26;20525;-72
2024/04/22 04:01:26;;;;;;;5.18;4.68;;;3.60;99.90;;;;;;5454681;26;20318;-72
2024/04/22 04:03:53;;;;;;;4.15;3.75;;;3.70;99.90;;;;;;5455008;26;20393;-73
2024/04/22 04:06:20;;;;;;;4.25;3.92;;;3.60;99.90;;;;;;5423101;26;19999;-73
2024/04/22 04:08:47;;;;;;;3.72;3.13;;;3.60;99.90;;;;;;5454620;26;19999;-73
2024/04/22 04:11:16;;;;;;;5.20;4.70;;;3.60;99.90;;;;;;5454367;26;20011;-73
2024/04/22 04:13:45;;;;;;;5.00;4.63;;;3.60;99.90;;;;;;5453036;26;20010;-73
2024/04/22 04:16:13;;;;;;;6.47;6.07;;;3.70;99.90;;;;;;5454112;26;20459;-72
2024/04/22 04:18:40;;;;;;;4.88;4.50;;;3.60;99.90;;;;;;5452864;26;20048;-73
2024/04/22 04:21:07;;;;;;;5.28;4.88;;;3.60;99.90;;;;;;5454665;26;20006;-73
2024/04/22 04:23:35;;;;;;;5.65;5.25;;;3.60;99.90;;;;;;5454551;26;20052;-73
2024/04/22 04:26:02;;;;;;;5.35;4.00;;;3.60;99.90;;;;;;5454521;26;20003;-73
2024/04/22 04:28:29;;;;;;;5.72;5.32;;;3.60;99.90;;;;;;5482658;26;20390;-74
2024/04/22 04:31:00;;;;;;;5.25;4.85;;;3.60;99.90;;;;;;5452738;26;19995;-73
2024/04/22 04:33:27;;;;;;;6.82;5.85;;;3.70;99.90;;;;;;5452694;26;19995;-73
2024/04/22 04:36:02;;;;;;;5.18;4.78;;;3.60;99.90;;;;;;5454426;26;20040;-73
2024/04/22 04:38:34;;;;;;;5.32;4.90;;;3.70;99.90;;;;;;5452413;26;20010;-73
2024/04/22 04:41:01;;;;;;;7.47;6.93;;;3.70;99.90;;;;;;5454731;26;19999;-73
2024/04/22 04:43:29;;;;;;;5.95;5.45;;;4.00;99.90;;;;;;5422599;26;20045;-72
2024/04/22 04:45:57;;;;;;;10.68;10.15;;;3.80;99.90;;;;;;5454319;26;20018;-73
2024/04/22 04:48:25;;;;;;;6.03;5.28;;;3.90;99.90;;;;;;5481714;26;20007;-73
2024/04/22 04:50:52;;;;;;;4.55;4.15;;;4.00;99.90;;;;;;5454036;26;20015;-73
2024/04/22 04:53:21;;;;;;;5.82;5.32;;;4.00;99.90;;;;;;5422664;26;20007;-73
2024/04/22 04:55:48;;;;;;;5.82;5.25;;;4.10;99.90;;;;;;5452152;26;20363;-73
2024/04/22 04:58:16;;;;;;;5.63;4.85;;;4.20;99.90;;;;;;5452056;26;20505;-73
2024/04/22 05:00:43;;;;;;;5.57;5.05;;;4.20;99.90;;;;;;5454900;26;20018;-73
2024/04/22 05:03:11;;;;;;;7.82;6.20;;;4.30;99.90;;;;;;5452848;26;20006;-73
2024/04/22 05:05:38;;;;;;;7.18;6.68;;;4.30;99.90;;;;;;5452691;26;20074;-73
2024/04/22 05:08:05;;;;;;;5.97;5.50;;;4.40;99.90;;;;;;5454056;26;20002;-73
2024/04/22 05:10:33;;;;;;;6.88;6.32;;;4.50;99.90;;;;;;5451869;26;19999;-73
2024/04/22 05:13:00;;;;;;;7.85;5.95;;;4.60;99.90;;;;;;5452082;26;19995;-73
2024/04/22 05:15:28;;;;;;;5.90;5.32;;;4.70;99.90;;;;;;5453236;26;20512;-73
2024/04/22 05:17:55;;;;;;;8.60;8.02;;;4.70;99.90;;;;;;5452206;26;19994;-73
2024/04/22 05:20:22;;;;;;;7.03;6.43;;;4.80;99.90;;;;;;5453268;26;20359;-73
2024/04/22 05:22:49;;;;;;;11.68;6.43;;;4.90;99.90;;;;;;5451694;26;20428;-73
2024/04/22 05:25:16;;;;;;;7.15;6.75;;;5.00;99.90;;;;;;5451745;26;20011;-73
2024/04/22 05:27:44;;;;;;;5.70;4.88;;;5.00;99.90;;;;;;5453349;26;20003;-73
2024/04/22 05:30:11;;;;;;;5.95;5.53;;;5.10;99.90;;;;;;5453369;26;20508;-73
2024/04/22 05:32:38;;;;;;;5.68;5.28;;;5.10;99.90;;;;;;5453027;26;20011;-72
2024/04/22 05:37:51;;;;;;;5.38;4.28;;;5.30;99.90;;;;;;5453315;26;20010;-72
2024/04/22 05:40:19;;;;;;;4.70;4.30;;;5.40;99.90;;;;;;5451400;26;19999;-73
2024/04/22 05:42:46;;;;;;;5.30;4.80;;;5.50;99.90;;;;;;5451464;26;20006;-73
2024/04/22 05:45:13;;;;;;;6.80;6.28;;;5.70;99.90;;;;;;5453063;26;20013;-73
2024/04/22 05:47:40;;;;;;;5.65;5.25;;;5.80;99.90;;;;;;5452919;26;19994;-72
2024/04/22 05:50:07;;;;;;;6.65;6.05;;;5.90;99.90;;;;;;5453430;26;20364;-73
2024/04/22 05:52:34;;;;;;;8.82;4.93;;;6.10;99.90;;;;;;5452959;26;20006;-73
2024/04/22 05:55:02;;;;;;;5.78;5.05;;;6.20;99.90;;;;;;5452996;26;20482;-72
2024/04/22 05:57:29;;;;;;;5.97;5.38;;;6.30;99.90;;;;;;5451394;26;19994;-73
2024/04/22 05:59:56;;;;;;;6.03;5.32;;;6.50;99.90;;;;;;5450224;26;19995;-73
2024/04/22 06:02:23;;;;;;;6.13;5.53;;;6.60;99.90;;;;;;5481922;25;20021;-73
2024/04/22 06:04:50;;;;;;;5.18;4.70;;;6.80;99.90;;;;;;5490109;25;20435;-73
2024/04/22 06:07:17;;;;;;;6.32;5.68;;;6.80;99.90;;;;;;5501191;26;20027;-73
2024/04/22 06:09:44;;;;;;;5.05;4.55;;;7.00;99.90;;;;;;5490888;26;20010;-73
2024/04/22 06:12:11;;;;;;;4.70;3.55;;;7.10;99.90;;;;;;5474161;26;20010;-73
2024/04/22 06:14:43;;;;;;;5.50;5.10;;;7.20;99.90;;;;;;5488601;26;20013;-73
2024/04/22 06:17:10;;;;;;;6.97;6.47;;;7.30;99.90;;;;;;5487013;26;19998;-73
2024/04/22 06:19:37;;;;;;;6.32;5.72;;;7.60;99.90;;;;;;5488450;26;20078;-73
2024/04/22 06:22:04;;;;;;;6.55;5.90;;;7.50;99.90;;;;;;5488970;26;20005;-73
2024/04/22 06:24:31;;;;;;;5.63;5.15;;;7.60;99.90;;;;;;5486872;26;20014;-73
2024/04/22 06:26:59;;;;;;;6.45;6.05;;;7.70;99.90;;;;;;5489072;26;19998;-73
2024/04/22 06:29:26;;;;;;;4.57;4.18;;;7.90;99.90;;;;;;5517529;26;19994;-74
2024/04/22 06:31:53;;;;;;;5.38;4.35;;;8.00;99.70;;;;;;5487312;26;20070;-73
2024/04/22 06:34:20;;;;;;;6.35;5.85;;;8.20;99.70;;;;;;5487386;26;19998;-73
2024/04/22 06:36:47;;;;;;;5.90;5.40;;;8.40;99.60;;;;;;5487188;26;20071;-73
2024/04/22 06:39:14;;;;;;;6.30;5.70;;;8.50;99.40;;;;;;5517500;26;19994;-73
2024/04/22 06:41:41;;;;;;;6.82;6.32;;;8.80;99.20;;;;;;5488492;26;20440;-73
2024/04/22 06:44:08;;;;;;;5.07;4.57;;;8.90;98.80;;;;;;5486705;26;20412;-73
2024/04/22 06:46:35;;;;;;;6.28;5.78;;;9.10;98.40;;;;;;5488323;26;20070;-73
2024/04/22 06:49:03;;;;;;;4.75;4.35;;;9.20;98.10;;;;;;5488709;26;19998;-73
2024/04/22 06:51:30;;;;;;;5.25;4.35;;;9.30;97.30;;;;;;5486397;26;19998;-73
2024/04/22 06:53:57;;;;;;;4.07;3.67;;;9.30;96.90;;;;;;5517087;26;20069;-73
2024/04/22 06:56:24;;;;;;;5.20;4.80;;;9.40;96.80;;;;;;5517335;26;19998;-73
2024/04/22 06:58:51;;;;;;;4.55;4.15;;;9.50;96.50;;;;;;5486334;26;19998;-73
2024/04/22 07:01:18;;;;;;;5.07;4.68;;;9.60;96.40;;;;;;5488306;26;20006;-73
2024/04/22 07:03:49;;;;;;;5.80;3.72;;;9.70;96.00;;;;;;5515833;26;20009;-73
2024/04/22 07:06:17;;;;;;;4.38;3.70;;;9.80;94.60;;;;;;5488691;26;20005;-73
2024/04/22 07:08:44;;;;;;;3.78;3.47;;;9.80;93.70;;;;;;5486354;26;20462;-73
2024/04/22 07:11:11;;;;;;;5.47;4.00;;;9.80;93.20;;;;;;5490473;26;20141;-73
2024/04/22 07:13:39;;;;;;;4.60;4.20;;;9.90;93.20;;;;;;5489726;26;19998;-73
2024/04/22 07:16:06;;;;;;;4.75;4.32;;;10.00;93.10;;;;;;5490168;26;20005;-73
2024/04/22 07:18:33;;;;;;;3.50;3.20;;;10.10;92.70;;;;;;5491734;26;20047;-73
2024/04/22 07:21:00;;;;;;;6.32;4.20;;;10.20;92.50;;;;;;5491708;26;20401;-73
2024/04/22 07:23:27;;;;;;;4.78;4.32;;;10.30;92.30;;;;;;5489735;26;19998;-73
2024/04/22 07:25:54;;;;;;;3.65;3.42;;;10.40;91.20;;;;;;5491164;26;20038;-73
2024/04/22 07:28:22;;;;;;;3.33;3.03;;;10.40;91.00;;;;;;5489686;26;19998;-73
2024/04/22 07:30:49;;;;;;;4.28;3.90;;;10.50;90.60;;;;;;5491291;26;20074;-73
2024/04/22 07:33:16;;;;;;;5.70;4.38;;;10.60;90.40;;;;;;5491365;26;20571;-73
2024/04/22 07:35:49;;;;;;;4.70;4.30;;;10.60;90.30;;;;;;5520040;26;20423;-73
2024/04/22 07:38:21;;;;;;;5.55;4.43;;;10.60;89.20;;;;;;5489788;26;19998;-73
2024/04/22 07:40:49;;;;;;;3.78;3.47;;;10.50;89.60;;;;;;5491402;26;20016;-73
2024/04/22 07:43:16;;;;;;;5.00;3.55;;;10.40;89.30;;;;;;5489695;26;20009;-73
2024/04/22 07:45:43;;;;;;;4.57;3.85;;;10.40;89.50;;;;;;5520257;26;20004;-74
2024/04/22 07:48:10;;;;;;;5.07;4.65;;;10.40;89.60;;;;;;5491324;26;20008;-73
2024/04/22 07:50:37;;;;;;;5.53;4.95;;;10.40;88.70;;;;;;5489100;26;20002;-73
2024/04/22 07:53:05;;;;;;;4.30;3.85;;;10.30;88.50;;;;;;5489415;26;20331;-73
2024/04/22 07:55:34;;;;;;;5.15;4.15;;;10.30;88.20;;;;;;5491563;26;20002;-73
2024/04/22 07:58:01;;;;;;;4.97;4.55;;;10.30;88.00;;;;;;5491299;26;20312;-73
2024/04/22 08:00:29;;;;;;;5.80;5.32;;;10.50;87.80;;;;;;5520284;26;19998;-73
2024/04/22 08:02:56;;;;;;;6.10;3.72;;;10.70;87.60;;;;;;5490572;26;20009;-74
2024/04/22 08:05:24;;;;;;;6.10;5.65;;;10.90;87.00;;;;;;5491177;26;20003;-73
2024/04/22 08:07:59;;;;;;;5.88;3.75;;;11.10;86.90;;;;;;5490863;26;20074;-73
2024/04/22 08:10:27;;;;;;;4.50;4.20;;;11.30;85.20;;;;;;5489184;26;20316;-74
2024/04/22 08:12:55;;;;;;;4.63;4.22;;;11.50;85.40;;;;;;5488845;26;20467;-73
2024/04/22 08:15:22;;;;;;;7.43;5.15;;;11.60;84.20;;;;;;5490750;26;20070;-74
2024/04/22 08:17:49;;;;;;;4.80;4.40;;;11.60;83.60;;;;;;5488745;26;20066;-74
2024/04/22 08:20:16;;;;;;;4.55;4.15;;;11.80;83.90;;;;;;5489074;26;20023;-74
2024/04/22 08:22:43;;;;;;;6.38;5.45;;;12.20;82.20;;;;;;5487428;26;20006;-74
2024/04/22 08:25:10;;;;;;;5.55;4.63;;;12.60;81.90;;;;;;5489322;26;19994;-74
2024/04/22 08:27:37;;;;;;;5.03;4.53;;;13.00;80.20;;;;;;5491094;26;20130;-74
2024/04/22 08:30:07;;;;;;;7.43;3.95;;;13.80;81.20;;;;;;5490796;26;20317;-74
2024/04/22 08:32:34;;;;;;;4.25;3.85;;;14.70;78.70;;;;;;5489184;26;20323;-74
2024/04/22 08:35:03;;;;;;;4.20;3.83;;;15.30;76.50;;;;;;5488813;26;19994;-75
2024/04/22 08:37:30;;;;;;;5.75;5.15;;;15.70;73.30;;;;;;5489151;26;20009;-75
2024/04/22 08:39:57;;;;;;;4.93;4.43;;;16.00;73.50;;;;;;5488742;26;20066;-74
2024/04/22 08:42:25;;;;;;;3.30;3.05;;;16.40;71.70;;;;;;5519206;26;20010;-75
2024/04/22 08:44:52;;;;;;;4.00;3.65;;;16.20;69.10;;;;;;5490192;26;20009;-74
2024/04/22 08:47:20;;;;;;;4.38;3.92;;;15.90;69.00;;;;;;5519056;26;19998;-74
2024/04/22 08:49:48;;;;;;;3.92;3.50;;;15.80;69.20;;;;;;5488322;26;20030;-75
2024/04/22 08:52:16;;;;;;;3.78;3.47;;;16.00;68.90;;;;;;5488337;26;20485;-74
2024/04/22 08:54:45;;;;;;;2.97;2.78;;;16.20;68.00;;;;;;5488386;26;20099;-74
2024/04/22 08:57:12;;;;;;;2.30;2.10;;;16.30;65.80;;;;;;5490578;26;20017;-74
2024/04/22 08:59:39;;;;;;;2.53;2.15;;;16.00;65.90;;;;;;5488524;26;20463;-74
2024/04/22 09:02:08;;;;;;;2.42;2.08;;;16.00;65.20;;;;;;5488286;26;20470;-74
2024/04/22 09:04:35;;;;;;;3.20;2.72;;;16.00;64.50;;;;;;5490424;26;20077;-74
2024/04/22 09:07:07;;;;;;;3.72;2.60;;;15.70;64.30;;;;;;5488204;26;20393;-74
2024/04/22 09:09:34;;;;;;;4.13;2.47;;;15.70;64.90;;;;;;5488787;26;19998;-74
2024/04/22 09:12:07;;;;;;;3.45;3.25;;;16.10;65.20;;;;;;5488584;26;20017;-75
2024/04/22 09:14:36;;;;;;;3.08;2.88;;;16.50;64.10;;;;;;5518378;26;20443;-74
2024/04/22 09:17:04;;;;;;;2.72;2.55;;;16.70;63.50;;;;;;5518611;26;20009;-74
2024/04/22 09:19:32;;;;;;;3.63;2.83;;;16.50;63.30;;;;;;5488448;26;20383;-74
2024/04/22 09:21:59;;;;;;;2.83;2.47;;;16.30;64.00;;;;;;5518358;26;20002;-74
2024/04/22 09:24:26;;;;;;;2.90;2.70;;;16.20;64.20;;;;;;5488219;26;20002;-74
2024/04/22 09:26:56;;;;;;;2.70;2.50;;;16.10;63.80;;;;;;5518462;26;20002;-74
2024/04/22 09:29:24;;;;;;;3.17;2.85;;;16.10;62.90;;;;;;5489872;26;20030;-74
2024/04/22 09:31:56;;;;;;;3.72;2.90;;;16.10;63.30;;;;;;5489570;26;20073;-74
2024/04/22 09:34:26;;;;;;;3.92;3.10;;;16.00;62.50;;;;;;5518538;26;20074;-74
2024/04/22 09:36:55;;;;;;;3.63;3.13;;;15.80;62.70;;;;;;5489526;26;20801;-74
2024/04/22 09:39:23;;;;;;;3.97;3.10;;;15.80;62.70;;;;;;5518500;26;20012;-74
2024/04/22 09:41:51;;;;;;;3.10;2.80;;;15.80;62.40;;;;;;5489594;26;20010;-74
2024/04/22 09:44:19;;;;;;;2.40;2.20;;;15.90;62.10;;;;;;5487838;26;19994;-74
2024/04/22 09:46:50;;;;;;;2.60;2.40;;;15.90;62.20;;;;;;5490101;26;20435;-74
2024/04/22 09:49:19;;;;;;;3.45;2.75;;;15.80;62.30;;;;;;5488353;26;20316;-74
2024/04/22 09:51:47;;;;;;;5.65;4.15;;;15.70;62.20;;;;;;5489931;26;20013;-74
2024/04/22 09:54:16;;;;;;;2.50;2.30;;;15.50;62.00;;;;;;5489374;26;19994;-74
2024/04/22 09:56:46;;;;;;;2.60;2.38;;;15.40;62.50;;;;;;5518470;26;20070;-74
2024/04/22 09:59:14;;;;;;;2.88;2.67;;;15.40;62.50;;;;;;5457558;26;20005;-74
2024/04/22 10:01:41;;;;;;;3.15;2.95;;;15.40;62.00;;;;;;5489563;26;20006;-74
2024/04/22 10:04:10;;;;;;;3.15;2.85;;;15.30;62.00;;;;;;5489011;26;20009;-74
2024/04/22 10:06:37;;;;;;;3.95;2.88;;;14.90;62.60;;;;;;5489538;26;19998;-74
2024/04/22 10:09:05;;;;;;;3.92;2.65;;;14.60;63.30;;;;;;5487170;26;20013;-74
2024/04/22 10:11:32;;;;;;;2.70;2.50;;;14.10;63.80;;;;;;5487688;26;20010;-73
2024/04/22 10:14:16;;;;;;;3.53;3.05;;;13.40;65.70;;;;;;5487220;26;20031;-73
2024/04/22 10:16:56;;;;;;;2.65;2.47;;;12.40;68.90;;;;;;5489354;26;20030;-73
2024/04/22 10:19:26;;;;;;;2.50;2.25;;;11.40;71.00;;;;;;5487271;26;20422;-73
2024/04/22 10:22:01;;;;;;;3.03;2.45;;;10.70;72.10;;;;;;5489124;26;20025;-73
2024/04/22 10:24:28;;;;;;;2.92;2.72;;;9.90;73.40;;;;;;5489504;26;19994;-73
2024/04/22 10:26:57;;;;;;;2.33;2.17;;;9.30;74.30;;;;;;5487301;26;20369;-72
2024/04/22 10:29:27;;;;;;;3.70;3.40;;;9.00;74.60;;;;;;5489342;26;20005;-73
2024/04/22 10:31:54;;;;;;;2.58;2.38;;;8.70;75.00;;;;;;5489047;26;19994;-73
2024/04/22 10:34:21;;;;;;;6.38;2.40;;;8.60;74.40;;;;;;5488587;26;20039;-73
2024/04/22 10:36:48;;;;;;;2.85;2.65;;;8.60;74.40;;;;;;5487041;26;20484;-73
2024/04/22 10:39:18;;;;;;;3.17;2.97;;;8.70;74.40;;;;;;5488476;26;20041;-73
2024/04/22 10:41:45;;;;;;;2.85;2.63;;;9.00;74.40;;;;;;5486830;26;19998;-73
2024/04/22 10:44:12;;;;;;;3.80;3.60;;;9.30;74.40;;;;;;5486525;26;20066;-73
2024/04/22 10:46:40;;;;;;;3.75;3.50;;;9.60;74.00;;;;;;5485826;26;20010;-74
2024/04/22 10:49:07;;;;;;;2.97;2.72;;;10.20;73.90;;;;;;5488134;26;20026;-74
2024/04/22 10:51:34;;;;;;;3.13;2.90;;;11.10;73.20;;;;;;5485969;26;19998;-74
2024/04/22 10:54:01;;;;;;;3.30;3.05;;;12.20;72.00;;;;;;5451482;26;20127;-74
2024/04/22 10:56:29;;;;;;;2.58;2.38;;;13.50;71.00;;;;;;5450187;26;20002;-74
2024/04/22 10:58:56;;;;;;;3.42;2.42;;;14.80;69.30;;;;;;5450224;26;20007;-74
2024/04/22 11:01:25;;;;;;;3.67;3.33;;;15.70;68.10;;;;;;5480671;26;20010;-74
2024/04/22 11:03:52;;;;;;;3.58;3.28;;;15.80;66.40;;;;;;5452324;26;20009;-74
2024/04/22 11:06:20;;;;;;;4.03;3.63;;;15.40;66.20;;;;;;5451732;26;20436;-74
2024/04/22 11:08:47;;;;;;;4.30;3.67;;;14.80;66.70;;;;;;5451896;26;20075;-74
2024/04/22 11:11:16;;;;;;;3.40;2.80;;;14.10;67.50;;;;;;5450099;26;20011;-74
2024/04/22 11:13:47;;;;;;;3.55;3.35;;;13.80;68.80;;;;;;5450307;26;20098;-74
2024/04/22 11:16:15;;;;;;;3.33;3.03;;;13.90;69.60;;;;;;5449953;26;19995;-74
2024/04/22 11:18:43;;;;;;;3.10;2.90;;;13.90;68.70;;;;;;5420611;26;20404;-74
2024/04/22 11:21:10;;;;;;;4.75;3.28;;;13.70;68.60;;;;;;5419976;26;20332;-74
2024/04/22 11:23:37;;;;;;;2.85;2.55;;;13.30;68.80;;;;;;5449763;26;20002;-73
2024/04/22 11:26:05;;;;;;;3.25;3.05;;;12.90;69.20;;;;;;5451637;26;20401;-73
2024/04/22 11:28:32;;;;;;;1.98;1.88;;;12.40;67.50;;;;;;5449632;26;20011;-73
2024/04/22 11:30:59;;;;;;;2.47;2.33;;;11.90;65.70;;;;;;5451456;26;20010;-73
2024/04/22 11:33:28;;;;;;;2.15;1.73;;;11.50;65.40;;;;;;5451430;26;20038;-74
2024/04/22 11:35:57;;;;;;;2.20;2.00;;;11.40;65.70;;;;;;5449479;26;19998;-74
2024/04/22 11:38:27;;;;;;;1.77;1.67;;;12.10;65.50;;;;;;5449214;26;20007;-74
2024/04/22 11:40:54;;;;;;;2.40;2.20;;;13.10;63.50;;;;;;5451446;26;20006;-73
2024/04/22 11:43:22;;;;;;;3.13;2.17;;;13.50;61.80;;;;;;5449236;26;19995;-74
2024/04/22 11:45:52;;;;;;;2.53;2.33;;;13.50;62.20;;;;;;5419788;26;20005;-74
2024/04/22 11:48:19;;;;;;;4.13;1.35;;;13.20;61.90;;;;;;5449641;26;20390;-74
2024/04/22 11:50:46;;;;;;;2.55;2.40;;;13.20;61.60;;;;;;5449743;26;20336;-74
2024/04/22 11:53:13;;;;;;;2.42;2.22;;;13.90;61.20;;;;;;5451087;26;20038;-74
2024/04/22 11:55:45;;;;;;;2.70;2.25;;;14.80;60.30;;;;;;5481135;26;20006;-73
2024/04/22 11:58:13;;;;;;;4.20;2.33;;;15.80;60.00;;;;;;5517121;26;19994;-74
2024/04/22 12:00:40;;;;;;;1.80;1.70;;;16.80;59.50;;;;;;5490949;26;20013;-74
2024/04/22 12:03:07;;;;;;;2.92;2.25;;;17.50;57.30;;;;;;5490440;26;20078;-74
2024/04/22 12:05:34;;;;;;;2.42;1.80;;;17.80;56.30;;;;;;5490374;26;20002;-74
2024/04/22 12:08:02;;;;;;;4.55;2.10;;;18.00;55.90;;;;;;5490786;26;19998;-74
2024/04/22 12:10:29;;;;;;;1.85;1.73;;;18.10;56.10;;;;;;5519238;26;20013;-74
2024/04/22 12:12:56;;;;;;;3.35;1.60;;;18.00;55.20;;;;;;5489201;26;19998;-74
2024/04/22 12:15:23;;;;;;;2.28;1.80;;;18.00;55.30;;;;;;5488932;26;20013;-74
2024/04/22 12:17:50;;;;;;;2.00;1.80;;;18.00;55.70;;;;;;5519691;26;20078;-74
2024/04/22 12:20:18;;;;;;;2.03;1.88;;;17.90;55.50;;;;;;5489266;26;20066;-74
2024/04/22 12:22:45;;;;;;;2.03;1.83;;;17.50;55.60;;;;;;5491116;26;19994;-74
2024/04/22 12:25:12;;;;;;;2.42;2.20;;;17.00;55.70;;;;;;5491417;26;19994;-74
2024/04/22 12:27:39;;;;;;;2.10;2.00;;;16.50;56.20;;;;;;5490845;26;20328;-73
2024/04/22 12:30:09;;;;;;;2.85;2.20;;;16.40;57.00;;;;;;5491318;26;19994;-73
2024/04/22 12:32:37;;;;;;;1.95;1.50;;;16.50;57.50;;;;;;5488971;26;20005;-73
2024/04/22 12:35:04;;;;;;;2.78;2.58;;;16.80;56.90;;;;;;5491198;26;20312;-73
2024/04/22 12:37:31;;;;;;;1.80;1.65;;;17.10;57.30;;;;;;5488665;26;20010;-74
2024/04/22 12:39:59;;;;;;;2.78;2.20;;;17.20;55.60;;;;;;5519791;26;20030;-74
2024/04/22 12:42:26;;;;;;;2.63;2.00;;;17.20;55.60;;;;;;5480162;26;20007;-73
2024/04/22 12:44:53;;;;;;;2.83;2.00;;;17.30;55.20;;;;;;5482677;26;20416;-74
2024/04/22 12:52:51;;;;;;;2.53;1.90;;;17.10;54.10;;;;;;5452342;26;19999;-73
2024/04/22 12:55:18;;;;;;;2.03;1.80;;;17.20;54.30;;;;;;5452097;26;19999;-74
2024/04/22 12:57:45;;;;;;;4.13;2.58;;;17.10;53.30;;;;;;5452205;26;20009;-74
2024/04/22 13:00:13;;;;;;;3.08;2.80;;;17.10;53.40;;;;;;5452207;26;20068;-73
2024/04/22 13:02:41;;;;;;;2.67;1.95;;;17.20;53.00;;;;;;5453677;26;20067;-73
2024/04/22 13:05:08;;;;;;;4.05;1.67;;;17.40;53.10;;;;;;5454387;26;20006;-73
2024/04/22 13:07:35;;;;;;;3.22;2.00;;;17.60;53.00;;;;;;5451686;26;20006;-74